createdAt,value
2022-12-05T00:00:42.686Z,-11.05
2022-12-05T00:05:48.244Z,-10.77
2022-12-05T00:10:54.060Z,-10.51
2022-12-05T00:15:59.661Z,-10.68
2022-12-05T00:21:05.585Z,-10.99
2022-12-05T00:26:12.003Z,-11.15
2022-12-05T00:31:21.101Z,-10.98
2022-12-05T00:36:28.922Z,-11.20
2022-12-05T00:41:35.002Z,-11.18
2022-12-05T00:46:41.059Z,-11.25
2022-12-05T00:51:46.659Z,-11.29
2022-12-05T00:56:58.305Z,-11.23
2022-12-05T01:02:03.905Z,-11.26
2022-12-05T01:07:10.845Z,-11.22
2022-12-05T01:12:16.358Z,-10.79
2022-12-05T01:17:21.909Z,-10.91
2022-12-05T01:22:27.320Z,-11.21
2022-12-05T01:27:33.089Z,-11.07
2022-12-05T01:32:38.553Z,-10.72
2022-12-05T01:37:43.884Z,-10.62
2022-12-05T01:42:49.374Z,-10.60
2022-12-05T01:47:55.547Z,-10.92
2022-12-05T01:53:01.694Z,-11.03
2022-12-05T01:58:09.099Z,-11.25
2022-12-05T02:03:20.178Z,-11.10
2022-12-05T02:08:30.988Z,-11.08
2022-12-05T02:14:00.489Z,-10.99
2022-12-05T02:19:11.276Z,-10.83
2022-12-05T02:24:56.510Z,-10.79
2022-12-05T02:30:11.567Z,-10.78
2022-12-05T02:35:35.195Z,-10.62
2022-12-05T02:40:40.628Z,-10.42
2022-12-05T02:45:52.559Z,-10.22
2022-12-05T02:51:01.183Z,-10.05
2022-12-05T02:56:08.289Z,-9.92
2022-12-05T03:01:14.147Z,-9.84
2022-12-05T03:06:43.506Z,-9.70
2022-12-05T03:12:26.614Z,-9.64
2022-12-05T03:17:42.931Z,-9.65
2022-12-05T03:23:01.270Z,-9.68
2022-12-05T03:28:31.534Z,-9.66
2022-12-05T03:33:45.064Z,-9.65
2022-12-05T03:39:14.590Z,-9.67
2022-12-05T03:44:38.506Z,-9.82
2022-12-05T03:49:51.118Z,-9.64
2022-12-05T03:55:09.308Z,-9.79
2022-12-05T04:00:20.109Z,-9.72
2022-12-05T04:05:34.912Z,-9.59
2022-12-05T04:10:51.293Z,-9.48
2022-12-05T04:16:23.392Z,-10.01
2022-12-05T04:21:45.496Z,-10.40
2022-12-05T04:27:23.243Z,-10.38
2022-12-05T04:32:54.786Z,-10.45
2022-12-05T04:38:13.304Z,-10.50
2022-12-05T04:43:21.128Z,-10.38
2022-12-05T04:48:28.669Z,-10.33
2022-12-05T04:53:34.168Z,-10.06
2022-12-05T04:58:38.585Z,-9.87
2022-12-05T05:04:08.565Z,-9.45
2022-12-05T05:09:12.462Z,-9.46
2022-12-05T05:14:16.652Z,-9.13
2022-12-05T05:19:20.822Z,-8.78
2022-12-05T05:24:26.927Z,-8.84
2022-12-05T05:29:31.253Z,-8.68
2022-12-05T05:34:35.777Z,-8.48
2022-12-05T05:39:40.420Z,-8.47
2022-12-05T05:44:44.820Z,-8.46
2022-12-05T05:49:49.189Z,-8.33
2022-12-05T05:54:53.390Z,-8.25
2022-12-05T05:59:57.869Z,-8.22
2022-12-05T06:05:02.633Z,-8.08
2022-12-05T06:10:09.438Z,-8.13
2022-12-05T06:15:14.320Z,-7.95
2022-12-05T06:20:18.964Z,-7.83
2022-12-05T06:25:23.325Z,-7.82
2022-12-05T06:30:27.530Z,-7.66
2022-12-05T06:35:31.816Z,-7.53
2022-12-05T06:40:36.650Z,-7.34
2022-12-05T06:45:41.315Z,-7.07
2022-12-05T06:50:54.568Z,-6.81
2022-12-05T06:56:04.020Z,-6.52
2022-12-05T07:01:32.968Z,-6.38
2022-12-05T07:06:37.576Z,-6.19
2022-12-05T07:11:41.840Z,-6.05
2022-12-05T07:16:46.540Z,-5.86
2022-12-05T07:21:50.839Z,-5.82
2022-12-05T07:26:55.428Z,-5.59
2022-12-05T07:31:59.846Z,-5.54
2022-12-05T07:37:04.081Z,-5.45
2022-12-05T07:42:08.238Z,-5.21
2022-12-05T07:47:12.685Z,-5.06
2022-12-05T07:52:17.023Z,-5.04
2022-12-05T07:57:21.470Z,-5.01
2022-12-05T08:02:25.802Z,-4.85
2022-12-05T08:13:33.427Z,-4.69
2022-12-05T08:18:38.506Z,-4.51
2022-12-05T08:23:43.783Z,-4.40
2022-12-05T08:28:51.587Z,-4.25
2022-12-05T08:41:05.771Z,-3.90
2022-12-05T08:46:12.229Z,-3.70
2022-12-05T08:51:16.735Z,-3.63
2022-12-05T08:56:26.598Z,-3.43
2022-12-05T09:01:32.434Z,-3.31
2022-12-05T09:06:37.241Z,-3.29
2022-12-05T09:11:49.357Z,-2.96
2022-12-05T09:16:53.893Z,-2.94
2022-12-05T09:21:58.899Z,-2.86
2022-12-05T09:27:03.262Z,-3.00
2022-12-05T09:32:07.963Z,-2.97
2022-12-05T09:37:37.649Z,-2.99
2022-12-05T09:42:51.620Z,-2.98
2022-12-05T09:48:01.138Z,-2.92
2022-12-05T09:53:25.235Z,-2.89
2022-12-05T09:58:41.289Z,-2.94
2022-12-05T10:04:11.793Z,-2.72
2022-12-05T10:09:33.279Z,-2.66
2022-12-05T10:14:52.747Z,-2.60
2022-12-05T10:20:01.252Z,-2.82
2022-12-05T10:25:07.586Z,-2.80
2022-12-05T10:30:18.344Z,-2.74
2022-12-05T10:35:25.436Z,-2.73
2022-12-05T10:40:45.796Z,-2.60
2022-12-05T10:45:50.133Z,-2.62
2022-12-05T10:50:57.210Z,-2.63
2022-12-05T10:56:29.372Z,-2.54
2022-12-05T11:01:27.268Z,-2.58
2022-12-05T11:06:33.783Z,-2.51
2022-12-05T11:11:38.041Z,-2.68
2022-12-05T11:16:42.573Z,-2.77
2022-12-05T11:21:47.902Z,-2.85
2022-12-05T11:26:52.418Z,-2.87
2022-12-05T11:31:57.002Z,-2.93
2022-12-05T11:37:11.665Z,-3.14
2022-12-05T11:43:05.772Z,-3.03
2022-12-05T11:48:43.477Z,-3.06
2022-12-05T11:54:15.424Z,-3.16
2022-12-05T11:59:54.330Z,-3.17
2022-12-05T12:05:13.774Z,-3.30
2022-12-05T12:10:24.122Z,-3.37
2022-12-05T12:15:42.333Z,-3.39
2022-12-05T12:21:12.003Z,-3.50
2022-12-05T12:26:41.050Z,-3.56
2022-12-05T12:32:14.959Z,-3.58
2022-12-05T12:37:35.648Z,-3.66
2022-12-05T12:43:06.034Z,-3.76
2022-12-05T12:48:13.282Z,-3.88
2022-12-05T12:53:43.774Z,-4.10
2022-12-05T12:59:17.841Z,-4.14
2022-12-05T13:04:56.473Z,-4.37
2022-12-05T13:10:08.577Z,-4.49
2022-12-05T13:15:19.678Z,-4.57
2022-12-05T13:20:28.801Z,-5.02
2022-12-05T13:25:36.614Z,-5.40
2022-12-05T13:30:59.384Z,-5.55
2022-12-05T13:36:31.201Z,-5.77
2022-12-05T13:42:06.512Z,-6.03
2022-12-05T13:47:48.871Z,-6.13
2022-12-05T13:52:57.545Z,-6.16
2022-12-05T13:58:28.020Z,-6.14
2022-12-05T14:04:04.282Z,-6.13
2022-12-05T14:09:19.980Z,-6.22
2022-12-05T14:14:57.831Z,-6.29
2022-12-05T14:20:38.433Z,-6.34
2022-12-05T14:25:58.953Z,-6.22
2022-12-05T14:31:27.136Z,-6.06
2022-12-05T14:36:34.461Z,-6.05
2022-12-05T14:41:40.551Z,-6.07
2022-12-05T14:46:46.730Z,-6.14
2022-12-05T14:52:00.724Z,-6.19
2022-12-05T14:57:18.615Z,-6.14
2022-12-05T15:02:29.750Z,-6.13
2022-12-05T15:07:41.012Z,-6.22
2022-12-05T15:13:08.427Z,-6.29
2022-12-05T15:18:20.045Z,-6.43
2022-12-05T15:23:43.552Z,-6.51
2022-12-05T15:29:13.461Z,-6.58
2022-12-05T15:34:45.527Z,-6.69
2022-12-05T15:39:57.019Z,-6.80
2022-12-05T15:45:14.362Z,-6.96
2022-12-05T15:51:00.655Z,-7.06
2022-12-05T15:56:33.988Z,-7.05
2022-12-05T16:01:52.458Z,-7.11
2022-12-05T16:07:01.184Z,-7.09
2022-12-05T16:12:29.706Z,-7.22
2022-12-05T16:17:56.162Z,-7.23
2022-12-05T16:23:07.011Z,-7.29
2022-12-05T16:28:37.960Z,-7.40
2022-12-05T16:33:44.226Z,-7.43
2022-12-05T16:38:50.533Z,-7.51
2022-12-05T16:43:58.025Z,-7.50
2022-12-05T16:49:44.279Z,-7.57
2022-12-05T16:54:52.795Z,-7.59
2022-12-05T16:59:58.541Z,-7.52
2022-12-05T17:05:14.653Z,-7.45
2022-12-05T17:10:20.279Z,-7.49
2022-12-05T17:15:25.717Z,-7.54
2022-12-05T17:20:31.524Z,-7.60
2022-12-05T17:25:39.186Z,-7.60
2022-12-05T17:30:44.752Z,-7.65
2022-12-05T17:35:51.645Z,-7.89
2022-12-05T17:40:58.747Z,-8.00
2022-12-05T17:46:10.196Z,-8.12
2022-12-05T17:51:16.223Z,-8.28
2022-12-05T17:56:22.330Z,-8.38
2022-12-05T18:01:27.978Z,-8.07
2022-12-05T18:06:34.278Z,-7.84
2022-12-05T18:11:39.865Z,-7.59
2022-12-05T18:16:45.644Z,-7.58
2022-12-05T18:21:51.597Z,-7.42
2022-12-05T18:26:57.172Z,-7.67
2022-12-05T18:32:03.352Z,-7.70
2022-12-05T18:37:08.798Z,-7.69
2022-12-05T18:42:15.426Z,-7.44
2022-12-05T18:47:21.455Z,-7.44
2022-12-05T18:52:27.031Z,-7.48
2022-12-05T18:57:32.562Z,-7.45
2022-12-05T19:02:38.335Z,-7.52
2022-12-05T19:07:44.029Z,-7.65
2022-12-05T19:12:50.011Z,-7.36
2022-12-05T19:17:55.653Z,-7.38
2022-12-05T19:23:01.419Z,-7.37
2022-12-05T19:28:06.918Z,-7.36
2022-12-05T19:33:12.504Z,-7.58
2022-12-05T19:38:18.270Z,-7.60
2022-12-05T19:43:23.843Z,-7.71
2022-12-05T19:48:30.245Z,-7.64
2022-12-05T19:53:38.520Z,-7.63
2022-12-05T19:58:44.584Z,-7.79
2022-12-05T20:03:52.435Z,-7.72
2022-12-05T20:09:00.224Z,-7.74
2022-12-05T20:14:06.318Z,-7.72
2022-12-05T20:19:12.165Z,-7.84
2022-12-05T20:24:17.674Z,-7.83
2022-12-05T20:29:23.360Z,-7.69
2022-12-05T20:34:28.865Z,-7.65
2022-12-05T20:39:34.644Z,-7.57
2022-12-05T20:44:40.215Z,-7.80
2022-12-05T20:49:45.852Z,-7.90
2022-12-05T20:54:52.921Z,-8.01
2022-12-05T20:59:58.716Z,-8.17
2022-12-05T21:05:04.464Z,-7.88
2022-12-05T21:10:10.420Z,-7.67
2022-12-05T21:15:17.122Z,-7.70
2022-12-05T21:20:23.598Z,-7.76
2022-12-05T21:25:29.285Z,-7.58
2022-12-05T21:30:35.387Z,-8.23
2022-12-05T21:35:41.195Z,-8.38
2022-12-05T21:40:46.798Z,-8.30
2022-12-05T21:45:55.881Z,-8.06
2022-12-05T21:51:02.068Z,-7.89
2022-12-05T21:56:14.584Z,-7.76
2022-12-05T22:01:23.435Z,-7.66
2022-12-05T22:06:30.587Z,-7.51
2022-12-05T22:11:36.292Z,-7.41
2022-12-05T22:16:41.912Z,-7.30
2022-12-05T22:21:47.461Z,-7.14
2022-12-05T22:26:53.407Z,-6.97
2022-12-05T22:31:58.961Z,-6.80
2022-12-05T22:37:05.475Z,-6.68
2022-12-05T22:42:11.894Z,-6.49
2022-12-05T22:47:17.583Z,-6.41
2022-12-05T22:52:23.039Z,-6.23
2022-12-05T22:57:28.519Z,-6.23
2022-12-05T23:02:34.134Z,-6.04
2022-12-05T23:07:39.710Z,-6.08
2022-12-05T23:12:45.333Z,-6.23
2022-12-05T23:17:50.991Z,-6.45
2022-12-05T23:22:59.377Z,-6.70
2022-12-05T23:28:05.182Z,-6.68
2022-12-05T23:33:10.848Z,-6.63
2022-12-05T23:38:16.389Z,-6.62
2022-12-05T23:43:22.058Z,-6.70
2022-12-05T23:48:27.992Z,-6.83
2022-12-05T23:53:35.301Z,-6.93
2022-12-05T23:58:41.715Z,-6.99
